Time;durP1;ratioP1;P1;durP2;ratioP2;P2;SDS_P1;SDS_P2;PMS_P1;PMS_P2;Temp;Humidity;BMP_temperature;BMP_pressure;BME280_temperature;BME280_humidity;BME280_pressure;Samples;Min_cycle;Max_cycle;Signal;HPM_P1;HPM_P2
2024/02/11 00:12:21;;;;;;;53.10;19.50;;;;;;;6.06;99.96;98581.77;674079;1268;139440;-79
2024/02/11 00:27:25;;;;;;;56.20;21.40;;;;;;;6.12;99.95;98583.66;679343;1264;138911;-80
2024/02/11 00:42:28;;;;;;;59.20;21.30;;;;;;;6.14;99.78;98569.21;672798;1266;139888;-81
2024/02/11 00:57:33;;;;;;;61.90;22.70;;;;;;;6.13;99.74;98557.73;678962;1263;139232;-80
2024/02/11 01:12:41;;;;;;;62.90;21.80;;;;;;;6.07;99.97;98552.15;676654;1264;139833;-80
2024/02/11 01:27:48;;;;;;;50.80;19.70;;;;;;;6.06;99.62;98559.54;677391;1264;137837;-80
2024/02/11 01:43:00;;;;;;;46.50;19.70;;;;;;;6.12;99.81;98543.94;676465;1265;139349;-80
2024/02/11 01:58:05;;;;;;;48.00;17.50;;;;;;;6.12;99.41;98555.39;675682;1264;139397;-83
2024/02/11 02:13:09;;;;;;;50.00;19.40;;;;;;;6.04;99.45;98549.70;678002;1268;139131;-81
2024/02/11 02:28:12;;;;;;;43.90;19.30;;;;;;;5.97;99.53;98551.23;678074;1261;140493;-81
2024/02/11 02:43:17;;;;;;;53.00;19.40;;;;;;;5.97;99.98;98554.39;673660;1262;138943;-80
2024/02/11 02:58:23;;;;;;;46.70;18.70;;;;;;;5.97;99.90;98549.45;676034;1264;139728;-82
2024/02/11 03:13:26;;;;;;;42.80;17.60;;;;;;;5.98;99.83;98546.66;675614;1262;139077;-81
2024/02/11 03:28:30;;;;;;;47.60;19.70;;;;;;;5.90;100.00;98528.45;679462;1264;139861;-80
2024/02/11 03:43:34;;;;;;;50.90;19.60;;;;;;;5.94;100.00;98523.91;677716;1264;139866;-82
2024/02/11 03:58:41;;;;;;;50.00;19.30;;;;;;;5.90;99.97;98518.92;680272;1264;139709;-83
2024/02/11 04:13:44;;;;;;;46.40;18.70;;;;;;;5.80;100.00;98510.98;675531;1263;139137;-81
2024/02/11 04:28:47;;;;;;;68.80;27.40;;;;;;;5.85;100.00;98520.61;678209;1264;139884;-81
2024/02/11 04:43:51;;;;;;;41.10;18.80;;;;;;;5.93;100.00;98528.70;676578;1264;139326;-82
2024/02/11 04:58:58;;;;;;;53.20;19.50;;;;;;;5.79;100.00;98512.00;677390;1265;139983;-82
2024/02/11 05:14:02;;;;;;;;;;;;;;;5.65;100.00;98490.43;677198;1264;140017;-83
2024/02/11 05:29:06;;;;;;;58.20;24.30;;;;;;;5.69;100.00;98492.49;680066;1265;125730;-81
2024/02/11 05:57:49;;;;;;;42.50;18.80;;;;;;;5.82;100.00;98503.58;658494;1298;545825;-81
2024/02/11 06:12:52;;;;;;;52.00;21.20;;;;;;;5.74;100.00;98499.63;673280;1277;139710;-81
2024/02/11 06:27:58;;;;;;;39.40;16.90;;;;;;;5.67;100.00;98498.77;671593;1276;139468;-81
2024/02/11 06:43:10;;;;;;;89.30;35.00;;;;;;;5.83;100.00;98508.99;674153;1276;139890;-82
2024/02/11 06:58:15;;;;;;;218.70;79.50;;;;;;;5.92;100.00;98516.95;678893;1269;139884;-81
2024/02/11 07:13:19;;;;;;;61.30;23.60;;;;;;;5.94;100.00;98522.31;678571;1270;139220;-82
2024/02/11 07:28:22;;;;;;;61.00;27.20;;;;;;;6.06;100.00;98525.20;678294;1270;138705;-82
2024/02/11 07:43:26;;;;;;;70.10;28.70;;;;;;;6.18;100.00;98515.08;675448;1269;138606;-82
2024/02/11 07:58:31;;;;;;;65.60;27.70;;;;;;;6.27;100.00;98519.36;674179;1269;139731;-82
2024/02/11 08:13:35;;;;;;;67.60;28.90;;;;;;;6.40;100.00;98524.64;678844;1271;139175;-80
2024/02/11 08:28:39;;;;;;;76.40;34.50;;;;;;;6.51;99.99;98524.82;676644;1269;139245;-82
2024/02/11 08:43:43;;;;;;;171.10;49.70;;;;;;;6.54;100.00;98517.27;676910;1264;139577;-81
2024/02/11 08:58:48;;;;;;;152.50;53.20;;;;;;;6.63;99.99;98517.52;675247;1267;139824;-81
2024/02/11 09:13:53;;;;;;;86.70;32.00;;;;;;;6.91;100.00;98519.81;677124;1277;139339;-81
2024/02/11 09:28:56;;;;;;;86.00;35.90;;;;;;;6.93;100.00;98520.84;677780;1264;139826;-80
2024/02/11 09:44:02;;;;;;;694.50;289.60;;;;;;;7.15;100.00;98522.92;676440;1267;139784;-81
2024/02/11 09:59:07;;;;;;;203.50;66.20;;;;;;;7.31;100.00;98514.97;676100;1264;139377;-81
2024/02/11 10:14:13;;;;;;;108.10;43.50;;;;;;;7.45;100.00;98501.52;674325;1267;139202;-81
2024/02/11 10:29:19;;;;;;;319.30;106.90;;;;;;;7.58;100.00;98494.61;674865;1263;140901;-81
2024/02/11 10:44:23;;;;;;;123.30;43.40;;;;;;;7.58;100.00;98478.40;676335;1267;139124;-81
2024/02/11 10:59:37;;;;;;;132.90;45.60;;;;;;;7.60;100.00;98482.20;675132;1264;139744;-81
2024/02/11 11:14:45;;;;;;;144.60;43.80;;;;;;;7.45;100.00;98473.31;676254;1264;140711;-82
2024/02/11 11:29:49;;;;;;;96.70;34.30;;;;;;;7.34;100.00;98458.12;675911;1264;139237;-82
2024/02/11 11:45:06;;;;;;;69.60;26.50;;;;;;;7.47;100.00;98450.52;676387;1263;139640;-80
2024/02/11 12:00:10;;;;;;;77.50;31.60;;;;;;;7.64;100.00;98432.48;676754;1263;139531;-80
2024/02/11 12:15:17;;;;;;;233.20;119.50;;;;;;;7.66;100.00;98423.66;677057;1264;138551;-80
2024/02/11 12:30:25;;;;;;;101.50;35.00;;;;;;;7.67;100.00;98405.75;675953;1259;139627;-81
2024/02/11 12:45:29;;;;;;;142.00;46.70;;;;;;;7.78;100.00;98393.30;674321;1262;139717;-81
2024/02/11 13:00:33;;;;;;;247.50;79.20;;;;;;;7.86;100.00;98398.67;678042;1264;139277;-81
2024/02/11 13:15:37;;;;;;;63.80;27.10;;;;;;;7.93;100.00;98383.70;679294;1262;139704;-82
2024/02/11 13:30:41;;;;;;;133.70;50.60;;;;;;;7.99;100.00;98367.38;679714;1264;139236;-82
2024/02/11 13:45:44;;;;;;;48.90;23.00;;;;;;;7.98;100.00;98356.54;676179;1264;138748;-81
2024/02/11 14:00:50;;;;;;;42.50;21.10;;;;;;;7.96;100.00;98345.84;672381;1266;138882;-81
2024/02/11 14:15:53;;;;;;;65.00;27.10;;;;;;;8.01;100.00;98340.05;674928;1263;138814;-82
2024/02/11 14:31:00;;;;;;;241.00;71.40;;;;;;;8.11;100.00;98333.96;675360;1267;139206;-82
2024/02/11 14:46:07;;;;;;;188.50;69.00;;;;;;;8.27;100.00;98324.55;674912;1264;139641;-81
2024/02/11 15:01:11;;;;;;;192.70;84.00;;;;;;;8.22;100.00;98316.16;674331;1263;140114;-81
2024/02/11 15:16:16;;;;;;;82.70;35.80;;;;;;;8.31;100.00;98315.77;672132;1264;139996;-82
2024/02/11 15:31:19;;;;;;;116.80;51.20;;;;;;;8.19;100.00;98310.30;676569;1267;139483;-81
2024/02/11 15:46:23;;;;;;;140.00;55.00;;;;;;;8.25;100.00;98311.72;677033;1264;140185;-82
2024/02/11 16:01:27;;;;;;;123.50;49.10;;;;;;;8.29;100.00;98315.77;676572;1266;139122;-81
2024/02/11 16:16:30;;;;;;;195.00;67.90;;;;;;;8.30;100.00;98312.02;679617;1261;139437;-81
2024/02/11 16:31:45;;;;;;;114.80;46.50;;;;;;;8.25;100.00;98312.23;676539;1274;139542;-80
2024/02/11 16:46:49;;;;;;;239.70;72.60;;;;;;;8.29;100.00;98308.95;676737;1261;139335;-81
2024/02/11 17:01:52;;;;;;;235.50;74.40;;;;;;;8.21;100.00;98300.30;671729;1262;139812;-81
2024/02/11 17:16:56;;;;;;;112.60;45.10;;;;;;;8.48;100.00;98299.98;673867;1264;139431;-80
2024/02/11 17:32:02;;;;;;;74.70;33.10;;;;;;;8.56;100.00;98302.58;677480;1263;139213;-81
2024/02/11 17:47:20;;;;;;;165.60;58.00;;;;;;;8.72;100.00;98298.21;677640;1264;138899;-81
2024/02/11 18:02:24;;;;;;;74.80;33.30;;;;;;;8.71;100.00;98293.26;676725;1262;270263;-80
2024/02/11 18:17:28;;;;;;;76.30;33.90;;;;;;;8.78;100.00;98293.18;675394;1263;139903;-81
2024/02/11 18:32:32;;;;;;;70.80;37.60;;;;;;;8.84;100.00;98288.27;679152;1264;139391;-80
2024/02/11 18:47:37;;;;;;;62.70;28.50;;;;;;;8.88;100.00;98284.77;676506;1264;138746;-81
2024/02/11 19:02:42;;;;;;;74.70;31.10;;;;;;;8.92;100.00;98287.28;672136;1264;140370;-81
2024/02/11 19:17:47;;;;;;;31.70;18.80;;;;;;;9.02;100.00;98288.04;679509;1266;139027;-81
2024/02/11 19:32:53;;;;;;;87.10;32.60;;;;;;;9.15;100.00;98284.93;679851;1264;138833;-81
2024/02/11 19:47:59;;;;;;;49.60;23.90;;;;;;;9.34;100.00;98284.23;677636;1264;138784;-79
2024/02/11 20:03:07;;;;;;;44.50;23.40;;;;;;;9.40;100.00;98281.44;678954;1264;140000;-80
2024/02/11 20:18:25;;;;;;;42.70;23.90;;;;;;;9.45;100.00;98283.09;678423;1263;139533;-80
2024/02/11 20:33:29;;;;;;;106.40;42.30;;;;;;;9.68;100.00;98273.16;678410;1263;139043;-79
2024/02/11 20:48:38;;;;;;;44.10;24.00;;;;;;;9.89;100.00;98268.84;681226;1264;139405;-80
2024/02/11 21:03:42;;;;;;;42.10;25.80;;;;;;;9.92;100.00;98266.95;677076;1264;139106;-80
2024/02/11 21:30:29;;;;;;;34.80;20.10;;;;;;;10.09;100.00;98263.51;660330;1299;544990;-78
2024/02/11 21:45:34;;;;;;;31.30;18.10;;;;;;;10.10;100.00;98257.30;675556;1275;139901;-80
2024/02/11 22:00:40;;;;;;;30.70;17.70;;;;;;;9.90;100.00;98258.19;678872;1266;139090;-80
2024/02/11 22:15:44;;;;;;;31.10;17.80;;;;;;;9.74;100.00;98254.16;679482;1270;139179;-81
2024/02/11 22:30:47;;;;;;;25.60;15.70;;;;;;;9.74;100.00;98253.64;676423;1267;139124;-80
2024/02/11 22:45:52;;;;;;;26.50;15.10;;;;;;;9.77;100.00;98254.17;677749;1267;140339;-80
2024/02/11 23:00:57;;;;;;;27.60;16.10;;;;;;;9.78;100.00;98252.61;677821;1263;139152;-80
2024/02/11 23:16:01;;;;;;;25.00;14.50;;;;;;;9.76;100.00;98250.94;676186;1263;139830;-79
2024/02/11 23:31:05;;;;;;;25.70;15.60;;;;;;;9.77;100.00;98250.30;680715;1265;139483;-80
2024/02/11 23:46:09;;;;;;;28.80;16.40;;;;;;;9.78;100.00;98246.05;675392;1275;139528;-81
